createdAt,value
2023-04-23T00:00:14.079Z,14.05
2023-04-23T00:01:14.058Z,13.98
2023-04-23T00:02:14.036Z,14.00
2023-04-23T00:03:14.126Z,13.95
2023-04-23T00:04:14.202Z,13.87
2023-04-23T00:05:14.078Z,13.93
2023-04-23T00:06:13.997Z,13.87
2023-04-23T00:07:13.974Z,13.82
2023-04-23T00:08:13.997Z,13.89
2023-04-23T00:09:13.956Z,13.82
2023-04-23T00:10:13.944Z,13.91
2023-04-23T00:11:13.950Z,13.91
2023-04-23T00:12:13.958Z,13.83
2023-04-23T00:13:13.923Z,13.86
2023-04-23T00:14:13.906Z,13.76
2023-04-23T00:15:13.922Z,13.79
2023-04-23T00:16:13.933Z,13.73
2023-04-23T00:17:13.877Z,13.75
2023-04-23T00:18:13.879Z,13.73
2023-04-23T00:19:13.866Z,13.75
2023-04-23T00:20:13.824Z,13.78
2023-04-23T00:21:13.816Z,13.67
2023-04-23T00:22:13.841Z,13.79
2023-04-23T00:23:13.810Z,13.67
2023-04-23T00:24:13.798Z,13.62
2023-04-23T00:25:13.779Z,13.71
2023-04-23T00:26:13.771Z,13.61
2023-04-23T00:27:13.759Z,13.57
2023-04-23T00:28:13.770Z,13.62
2023-04-23T00:29:13.737Z,13.57
2023-04-23T00:30:13.718Z,13.58
2023-04-23T00:31:13.752Z,13.45
2023-04-23T00:32:13.676Z,13.43
2023-04-23T00:33:13.708Z,13.43
2023-04-23T00:34:13.712Z,13.31
2023-04-23T00:35:13.666Z,13.30
2023-04-23T00:36:13.633Z,13.37
2023-04-23T00:37:13.665Z,13.30
2023-04-23T00:38:13.673Z,13.27
2023-04-23T00:39:13.585Z,13.31
2023-04-23T00:40:13.654Z,13.40
2023-04-23T00:41:13.612Z,13.21
2023-04-23T00:42:13.582Z,13.24
2023-04-23T00:43:13.606Z,13.16
2023-04-23T00:44:13.584Z,13.12
2023-04-23T00:45:13.568Z,13.13
2023-04-23T00:46:13.572Z,13.13
2023-04-23T00:47:13.555Z,13.13
2023-04-23T00:48:13.525Z,13.09
2023-04-23T00:49:13.517Z,13.05
2023-04-23T00:50:13.541Z,12.99
2023-04-23T00:51:13.488Z,13.05
2023-04-23T00:52:13.474Z,13.01
2023-04-23T00:53:13.460Z,13.02
2023-04-23T00:54:13.469Z,13.09
2023-04-23T00:55:13.429Z,12.95
2023-04-23T00:56:13.462Z,12.95
2023-04-23T00:57:13.417Z,13.02
2023-04-23T00:58:13.421Z,12.94
2023-04-23T00:59:13.392Z,12.88
2023-04-23T01:00:13.406Z,12.87
2023-04-23T01:01:13.439Z,12.90
2023-04-23T01:02:13.403Z,12.91
2023-04-23T01:03:13.621Z,12.84
2023-04-23T01:04:13.377Z,12.90
2023-04-23T01:05:13.374Z,12.83
2023-04-23T01:06:13.350Z,12.80
2023-04-23T01:07:13.304Z,12.83
2023-04-23T01:08:13.274Z,12.75
2023-04-23T01:09:13.275Z,12.70
2023-04-23T01:10:13.280Z,12.76
2023-04-23T01:11:13.268Z,12.75
2023-04-23T01:12:13.236Z,12.75
2023-04-23T01:13:13.232Z,12.76
2023-04-23T01:14:13.247Z,12.73
2023-04-23T01:15:13.249Z,12.72
2023-04-23T01:16:13.207Z,12.65
2023-04-23T01:17:13.184Z,12.76
2023-04-23T01:18:13.233Z,12.72
2023-04-23T01:19:13.169Z,12.75
2023-04-23T01:20:13.194Z,12.69
2023-04-23T01:21:13.166Z,12.66
2023-04-23T01:22:13.136Z,12.76
2023-04-23T01:23:13.117Z,12.70
2023-04-23T01:24:13.132Z,12.70
2023-04-23T01:25:13.121Z,12.69
2023-04-23T01:26:13.093Z,12.68
2023-04-23T01:27:13.102Z,12.68
2023-04-23T01:28:13.076Z,12.63
2023-04-23T01:29:13.089Z,12.58
2023-04-23T01:30:13.050Z,12.63
2023-04-23T01:31:14.079Z,12.55
2023-04-23T01:32:13.013Z,12.61
2023-04-23T01:33:13.015Z,12.50
2023-04-23T01:34:13.038Z,12.61
2023-04-23T01:35:12.976Z,12.53
2023-04-23T01:36:13.019Z,12.53
2023-04-23T01:37:12.977Z,12.62
2023-04-23T01:38:12.953Z,12.45
2023-04-23T01:39:12.938Z,12.48
2023-04-23T01:40:12.968Z,12.58
2023-04-23T01:41:12.933Z,12.57
2023-04-23T01:42:12.893Z,12.58
2023-04-23T01:43:12.902Z,12.63
2023-04-23T01:44:12.897Z,12.48
2023-04-23T01:45:12.877Z,12.53
2023-04-23T01:46:12.886Z,12.48
2023-04-23T01:47:12.841Z,12.47
2023-04-23T01:48:13.857Z,12.63
2023-04-23T01:49:12.840Z,12.43
2023-04-23T01:50:12.808Z,12.51
2023-04-23T01:51:12.823Z,12.45
2023-04-23T01:52:12.790Z,12.47
2023-04-23T01:53:12.788Z,12.45
2023-04-23T01:54:12.784Z,12.48
2023-04-23T01:55:12.781Z,12.51
2023-04-23T01:56:12.745Z,12.43
2023-04-23T01:57:12.738Z,12.54
2023-04-23T01:58:12.757Z,12.44
2023-04-23T01:59:12.691Z,12.50
2023-04-23T02:00:12.745Z,12.51
2023-04-23T02:01:12.708Z,12.58
2023-04-23T02:02:12.687Z,12.47
2023-04-23T02:03:12.791Z,12.51
2023-04-23T02:04:12.749Z,12.51
2023-04-23T02:05:12.675Z,12.51
2023-04-23T02:06:12.628Z,12.47
2023-04-23T02:07:12.643Z,12.48
2023-04-23T02:08:12.598Z,12.48
2023-04-23T02:09:12.597Z,12.48
2023-04-23T02:10:12.635Z,12.51
2023-04-23T02:11:12.628Z,12.44
2023-04-23T02:12:12.555Z,12.47
2023-04-23T02:13:12.550Z,12.44
2023-04-23T02:14:12.572Z,12.45
2023-04-23T02:15:12.552Z,12.50
2023-04-23T02:16:12.571Z,12.48
2023-04-23T02:17:12.521Z,12.48
2023-04-23T02:18:12.516Z,12.53
2023-04-23T02:19:14.697Z,12.39
2023-04-23T02:20:12.473Z,12.39
2023-04-23T02:21:12.466Z,12.35
2023-04-23T02:22:12.463Z,12.50
2023-04-23T02:23:12.442Z,12.51
2023-04-23T02:24:12.454Z,12.50
2023-04-23T02:25:12.424Z,12.44
2023-04-23T02:26:12.391Z,12.35
2023-04-23T02:27:12.424Z,12.51
2023-04-23T02:28:12.393Z,12.48
2023-04-23T02:29:12.380Z,12.40
2023-04-23T02:30:12.357Z,12.40
2023-04-23T02:31:12.370Z,12.47
2023-04-23T02:32:12.327Z,12.44
2023-04-23T02:33:12.336Z,12.47
2023-04-23T02:34:12.330Z,12.50
2023-04-23T02:35:12.303Z,12.30
2023-04-23T02:36:12.292Z,12.36
2023-04-23T02:37:12.270Z,12.32
2023-04-23T02:38:12.296Z,12.17
2023-04-23T02:39:12.237Z,12.17
2023-04-23T02:40:12.258Z,12.12
2023-04-23T02:41:12.244Z,12.12
2023-04-23T02:42:12.211Z,12.05
2023-04-23T02:43:12.232Z,11.83
2023-04-23T02:44:12.208Z,11.56
2023-04-23T02:45:12.216Z,11.63
2023-04-23T02:46:12.162Z,11.62
2023-04-23T02:47:12.173Z,11.65
2023-04-23T02:48:12.191Z,11.55
2023-04-23T02:49:12.150Z,11.55
2023-04-23T02:50:12.116Z,11.52
2023-04-23T02:51:12.135Z,11.48
2023-04-23T02:52:12.182Z,11.41
2023-04-23T02:53:12.098Z,11.49
2023-04-23T02:54:12.092Z,11.44
2023-04-23T02:55:12.081Z,11.35
2023-04-23T02:56:12.042Z,11.40
2023-04-23T02:57:12.038Z,11.38
2023-04-23T02:58:12.067Z,11.22
2023-04-23T02:59:12.023Z,11.27
2023-04-23T03:00:12.010Z,11.22
2023-04-23T03:01:12.010Z,11.26
2023-04-23T03:02:12.085Z,11.20
2023-04-23T03:03:12.868Z,11.23
2023-04-23T03:04:13.105Z,11.18
2023-04-23T03:05:11.958Z,11.22
2023-04-23T03:06:11.941Z,11.10
2023-04-23T03:07:11.934Z,11.10
2023-04-23T03:08:11.944Z,11.13
2023-04-23T03:09:11.940Z,11.00
2023-04-23T03:10:11.886Z,11.08
2023-04-23T03:11:11.913Z,11.01
2023-04-23T03:12:11.878Z,11.01
2023-04-23T03:13:11.884Z,11.01
2023-04-23T03:14:11.881Z,11.04
2023-04-23T03:15:11.849Z,11.05
2023-04-23T03:16:11.847Z,11.05
2023-04-23T03:17:11.821Z,10.95
2023-04-23T03:18:11.840Z,10.95
2023-04-23T03:19:11.809Z,10.95
2023-04-23T03:20:11.813Z,10.97
2023-04-23T03:21:11.786Z,10.94
2023-04-23T03:22:11.813Z,10.86
2023-04-23T03:23:11.787Z,11.01
2023-04-23T03:24:11.743Z,10.86
2023-04-23T03:25:11.728Z,10.92
2023-04-23T03:26:11.745Z,10.90
2023-04-23T03:27:11.718Z,10.98
2023-04-23T03:28:11.716Z,10.90
2023-04-23T03:29:11.720Z,10.89
2023-04-23T03:30:11.670Z,10.83
2023-04-23T03:31:11.694Z,10.90
2023-04-23T03:32:11.717Z,10.97
2023-04-23T03:33:11.652Z,11.02
2023-04-23T03:34:11.626Z,11.01
2023-04-23T03:35:11.648Z,11.02
2023-04-23T03:36:11.606Z,11.07
2023-04-23T03:37:11.611Z,11.02
2023-04-23T03:38:11.618Z,11.04
2023-04-23T03:39:12.591Z,11.04
2023-04-23T03:40:11.558Z,11.05
2023-04-23T03:41:11.578Z,10.95
2023-04-23T03:42:11.555Z,10.89
2023-04-23T03:43:11.505Z,10.92
2023-04-23T03:44:11.542Z,10.92
2023-04-23T03:45:11.517Z,10.87
2023-04-23T03:46:11.524Z,10.84
2023-04-23T03:47:11.514Z,10.97
2023-04-23T03:48:11.503Z,10.84
2023-04-23T03:49:11.478Z,10.86
2023-04-23T03:50:11.440Z,10.89
2023-04-23T03:51:11.445Z,10.94
2023-04-23T03:52:11.458Z,10.90
2023-04-23T03:53:11.475Z,10.90
2023-04-23T03:54:11.398Z,10.82
2023-04-23T03:55:11.404Z,10.94
2023-04-23T03:56:11.399Z,10.87
2023-04-23T03:57:11.374Z,10.92
2023-04-23T03:58:11.369Z,10.90
2023-04-23T03:59:11.386Z,10.86
2023-04-23T04:00:11.329Z,10.94
2023-04-23T04:01:11.317Z,10.90
2023-04-23T04:02:11.455Z,10.86
2023-04-23T04:03:11.433Z,10.86
2023-04-23T04:04:11.708Z,10.89
2023-04-23T04:05:11.639Z,10.82
2023-04-23T04:06:11.285Z,10.86
2023-04-23T04:07:11.244Z,10.80
2023-04-23T04:08:11.277Z,10.79
2023-04-23T04:09:11.245Z,10.80
2023-04-23T04:10:11.229Z,10.77
2023-04-23T04:11:11.209Z,10.82
2023-04-23T04:12:11.235Z,10.86
2023-04-23T04:13:11.195Z,10.82
2023-04-23T04:14:11.165Z,10.84
2023-04-23T04:15:11.188Z,10.79
2023-04-23T04:16:11.177Z,10.80
2023-04-23T04:17:11.168Z,10.86
2023-04-23T04:18:11.149Z,10.79
2023-04-23T04:19:11.126Z,10.90
2023-04-23T04:20:11.160Z,10.80
2023-04-23T04:21:11.108Z,10.79
2023-04-23T04:22:11.105Z,10.83
2023-04-23T04:23:11.105Z,10.77
2023-04-23T04:24:11.052Z,10.80
2023-04-23T04:25:11.055Z,10.82
2023-04-23T04:26:11.056Z,10.89
2023-04-23T04:27:11.049Z,10.82
2023-04-23T04:28:11.019Z,10.80
2023-04-23T04:29:11.025Z,10.76
2023-04-23T04:30:11.046Z,10.79
2023-04-23T04:31:11.001Z,10.80
2023-04-23T04:32:10.987Z,10.77
2023-04-23T04:33:10.968Z,10.80
2023-04-23T04:34:10.940Z,10.83
2023-04-23T04:35:10.933Z,10.87
2023-04-23T04:36:10.946Z,10.77
2023-04-23T04:37:10.940Z,10.82
2023-04-23T04:38:10.916Z,10.80
2023-04-23T04:39:10.924Z,10.84
2023-04-23T04:40:10.862Z,10.87
2023-04-23T04:41:10.861Z,10.80
2023-04-23T04:42:10.882Z,10.68
2023-04-23T04:43:10.843Z,10.82
2023-04-23T04:44:10.823Z,10.79
2023-04-23T04:45:11.818Z,10.76
2023-04-23T04:46:10.813Z,10.77
2023-04-23T04:47:10.870Z,10.71
2023-04-23T04:48:10.811Z,10.71
2023-04-23T04:49:10.754Z,10.76
2023-04-23T04:50:11.779Z,10.72
2023-04-23T04:51:10.742Z,10.65
2023-04-23T04:52:10.798Z,10.72
2023-04-23T04:53:10.812Z,10.65
2023-04-23T04:54:10.717Z,10.72
2023-04-23T04:55:11.720Z,10.80
2023-04-23T04:56:10.682Z,10.72
2023-04-23T04:57:10.680Z,10.68
2023-04-23T04:58:10.706Z,10.65
2023-04-23T04:59:10.677Z,10.79
2023-04-23T05:00:10.626Z,10.79
2023-04-23T05:01:10.725Z,10.84
2023-04-23T05:02:10.728Z,10.76
2023-04-23T05:03:13.427Z,10.86
2023-04-23T05:04:11.779Z,10.76
2023-04-23T05:05:10.598Z,10.79
2023-04-23T05:06:10.559Z,10.87
2023-04-23T05:07:10.564Z,10.92
2023-04-23T05:08:10.600Z,10.90
2023-04-23T05:09:10.550Z,10.89
2023-04-23T05:10:10.534Z,10.90
2023-04-23T05:11:10.550Z,11.10
2023-04-23T05:12:10.500Z,11.00
2023-04-23T05:13:10.513Z,10.98
2023-04-23T05:14:10.516Z,11.05
2023-04-23T05:15:10.498Z,11.00
2023-04-23T05:16:10.487Z,11.08
2023-04-23T05:17:10.460Z,11.10
2023-04-23T05:18:10.455Z,11.00
2023-04-23T05:19:10.427Z,11.04
2023-04-23T05:20:10.458Z,11.05
2023-04-23T05:21:10.405Z,11.05
2023-04-23T05:22:10.376Z,11.04
2023-04-23T05:23:10.392Z,10.95
2023-04-23T05:24:10.412Z,10.98
2023-04-23T05:25:10.375Z,11.01
2023-04-23T05:26:10.345Z,11.13
2023-04-23T05:27:10.336Z,11.08
2023-04-23T05:28:10.357Z,11.15
2023-04-23T05:29:10.333Z,11.20
2023-04-23T05:30:10.304Z,11.22
2023-04-23T05:31:10.293Z,11.23
2023-04-23T05:32:10.355Z,11.26
2023-04-23T05:33:10.302Z,11.22
2023-04-23T05:34:10.252Z,11.27
2023-04-23T05:35:10.276Z,11.41
2023-04-23T05:36:10.235Z,11.38
2023-04-23T05:37:10.225Z,11.37
2023-04-23T05:38:10.260Z,11.40
2023-04-23T05:39:10.216Z,11.37
2023-04-23T05:40:10.177Z,11.40
2023-04-23T05:41:10.187Z,11.44
2023-04-23T05:42:10.190Z,11.45
2023-04-23T05:43:10.160Z,11.43
2023-04-23T05:44:10.172Z,11.40
2023-04-23T05:45:10.165Z,11.35
2023-04-23T05:46:10.136Z,11.35
2023-04-23T05:47:10.135Z,11.45
2023-04-23T05:48:10.141Z,11.35
2023-04-23T05:49:10.100Z,11.40
2023-04-23T05:50:10.100Z,11.34
2023-04-23T05:51:10.084Z,11.44
2023-04-23T05:52:10.053Z,11.37
2023-04-23T05:53:10.058Z,11.45
2023-04-23T05:54:10.057Z,11.41
2023-04-23T05:55:10.196Z,11.44
2023-04-23T05:56:09.995Z,11.35
2023-04-23T05:57:10.018Z,11.40
2023-04-23T05:58:09.999Z,11.38
2023-04-23T05:59:09.984Z,11.43
2023-04-23T06:00:09.980Z,11.44
2023-04-23T06:01:09.940Z,11.40
2023-04-23T06:02:10.051Z,11.43
2023-04-23T06:03:10.006Z,11.53
2023-04-23T06:04:10.152Z,11.48
2023-04-23T06:05:10.221Z,11.59
2023-04-23T06:06:09.927Z,11.55
2023-04-23T06:07:09.884Z,11.45
2023-04-23T06:08:09.878Z,11.53
2023-04-23T06:09:09.867Z,11.59
2023-04-23T06:10:09.847Z,11.65
2023-04-23T06:11:09.835Z,11.67
2023-04-23T06:12:09.861Z,11.77
2023-04-23T06:13:09.807Z,11.70
2023-04-23T06:14:09.805Z,11.73
2023-04-23T06:15:09.832Z,11.59
2023-04-23T06:16:09.821Z,11.70
2023-04-23T06:17:09.772Z,11.86
2023-04-23T06:18:09.817Z,11.63
2023-04-23T06:19:09.749Z,11.70
2023-04-23T06:20:09.738Z,11.86
2023-04-23T06:21:09.718Z,11.86
2023-04-23T06:22:09.726Z,11.81
2023-04-23T06:23:09.695Z,11.80
2023-04-23T06:24:09.692Z,11.91
2023-04-23T06:25:09.677Z,11.91
2023-04-23T06:26:09.644Z,12.03
2023-04-23T06:27:09.660Z,11.97
2023-04-23T06:28:09.645Z,12.07
2023-04-23T06:29:09.626Z,12.17
2023-04-23T06:30:09.601Z,12.17
2023-04-23T06:31:09.633Z,12.25
2023-04-23T06:32:09.643Z,12.26
2023-04-23T06:33:09.599Z,12.17
2023-04-23T06:34:09.571Z,12.14
2023-04-23T06:35:09.613Z,12.18
2023-04-23T06:36:09.560Z,12.35
2023-04-23T06:37:09.549Z,12.28
2023-04-23T06:38:09.502Z,12.30
2023-04-23T06:39:09.523Z,12.32
2023-04-23T06:40:09.523Z,12.33
2023-04-23T06:41:09.495Z,12.43
2023-04-23T06:42:09.483Z,12.39
2023-04-23T06:43:09.471Z,12.55
2023-04-23T06:44:09.446Z,12.53
2023-04-23T06:45:09.495Z,12.62
2023-04-23T06:46:09.452Z,12.66
2023-04-23T06:47:09.494Z,12.75
2023-04-23T06:48:09.469Z,12.75
2023-04-23T06:49:09.584Z,12.61
2023-04-23T06:50:09.371Z,12.58
2023-04-23T06:51:09.380Z,12.54
2023-04-23T06:52:09.414Z,12.69
2023-04-23T06:53:09.367Z,12.80
2023-04-23T06:54:09.326Z,12.84
2023-04-23T06:55:09.364Z,12.91
2023-04-23T06:56:09.313Z,13.01
2023-04-23T06:57:09.308Z,13.05
2023-04-23T06:58:09.340Z,13.13
2023-04-23T06:59:09.275Z,13.16
2023-04-23T07:00:09.249Z,13.30
2023-04-23T07:01:09.339Z,13.42
2023-04-23T07:02:09.310Z,13.46
2023-04-23T07:03:09.380Z,13.52
2023-04-23T07:04:09.248Z,13.45
2023-04-23T07:05:09.228Z,13.42
2023-04-23T07:06:09.302Z,13.19
2023-04-23T07:07:09.199Z,13.36
2023-04-23T07:08:09.193Z,13.46
2023-04-23T07:09:09.184Z,13.33
2023-04-23T07:10:09.198Z,13.39
2023-04-23T07:11:09.168Z,13.37
2023-04-23T07:12:09.179Z,13.20
2023-04-23T07:13:10.140Z,13.20
2023-04-23T07:14:09.152Z,13.12
2023-04-23T07:15:09.272Z,13.23
2023-04-23T07:16:09.156Z,13.16
2023-04-23T07:17:09.168Z,13.28
2023-04-23T07:18:09.086Z,13.11
2023-04-23T07:19:09.103Z,13.12
2023-04-23T07:20:09.086Z,13.23
2023-04-23T07:21:09.067Z,13.33
2023-04-23T07:22:09.070Z,13.11
2023-04-23T07:23:09.049Z,13.17
2023-04-23T07:24:09.049Z,13.08
2023-04-23T07:25:09.021Z,13.11
2023-04-23T07:26:09.038Z,13.02
2023-04-23T07:27:08.967Z,13.12
2023-04-23T07:28:08.999Z,13.08
2023-04-23T07:29:09.085Z,12.99
2023-04-23T07:30:08.936Z,13.06
2023-04-23T07:31:08.937Z,13.23
2023-04-23T07:32:08.998Z,13.40
2023-04-23T07:33:08.999Z,13.57
2023-04-23T07:34:08.915Z,13.79
2023-04-23T07:35:08.922Z,13.87
2023-04-23T07:36:08.899Z,13.80
2023-04-23T07:37:08.876Z,13.87
2023-04-23T07:38:08.875Z,14.05
2023-04-23T07:39:08.856Z,14.15
2023-04-23T07:40:08.865Z,14.31
2023-04-23T07:41:08.853Z,14.43
2023-04-23T07:42:08.910Z,14.59
2023-04-23T07:43:08.834Z,14.66
2023-04-23T07:44:08.785Z,14.78
2023-04-23T07:45:08.800Z,14.96
2023-04-23T07:46:08.842Z,15.00
2023-04-23T07:47:08.793Z,14.94
2023-04-23T07:48:08.752Z,15.17
2023-04-23T07:49:08.755Z,15.10
2023-04-23T07:50:08.769Z,15.11
2023-04-23T07:51:08.707Z,14.99
2023-04-23T07:52:08.745Z,15.08
2023-04-23T07:53:08.726Z,15.11
2023-04-23T07:54:08.687Z,15.10
2023-04-23T07:55:08.677Z,14.94
2023-04-23T07:56:08.695Z,14.79
2023-04-23T07:57:08.666Z,14.71
2023-04-23T07:58:08.665Z,14.73
2023-04-23T07:59:08.662Z,14.63
2023-04-23T08:00:08.628Z,14.67
2023-04-23T08:01:08.648Z,14.52
2023-04-23T08:02:08.758Z,14.11
2023-04-23T08:03:08.724Z,13.97
2023-04-23T08:04:08.873Z,14.01
2023-04-23T08:05:08.705Z,13.91
2023-04-23T08:06:08.590Z,13.86
2023-04-23T08:07:08.578Z,13.86
2023-04-23T08:08:08.562Z,14.00
2023-04-23T08:09:08.544Z,14.16
2023-04-23T08:10:08.545Z,14.31
2023-04-23T08:11:08.549Z,14.52
2023-04-23T08:12:08.482Z,14.61
2023-04-23T08:13:08.505Z,14.62
2023-04-23T08:14:08.509Z,14.71
2023-04-23T08:15:08.479Z,14.78
2023-04-23T08:16:08.519Z,14.97
2023-04-23T08:17:08.455Z,15.00
2023-04-23T08:18:08.412Z,14.96
2023-04-23T08:19:08.444Z,15.17
2023-04-23T08:20:08.439Z,15.11
2023-04-23T08:21:08.393Z,14.93
2023-04-23T08:22:08.375Z,14.97
2023-04-23T08:23:08.406Z,15.04
2023-04-23T08:24:08.362Z,15.15
2023-04-23T08:25:08.344Z,15.33
2023-04-23T08:26:08.379Z,15.43
2023-04-23T08:27:08.351Z,15.44
2023-04-23T08:28:08.331Z,15.60
2023-04-23T08:29:10.165Z,15.65
2023-04-23T08:30:08.326Z,15.75
2023-04-23T08:31:22.773Z,15.76
2023-04-23T08:32:10.391Z,15.88
2023-04-23T08:33:08.304Z,15.90
2023-04-23T08:34:08.362Z,15.63
2023-04-23T08:35:08.274Z,15.48
2023-04-23T08:36:08.295Z,15.29
2023-04-23T08:37:13.898Z,15.25
2023-04-23T08:38:10.201Z,14.97
2023-04-23T08:39:08.215Z,15.05
2023-04-23T08:40:08.217Z,14.94
2023-04-23T08:41:08.198Z,15.32
2023-04-23T08:42:08.183Z,15.47
2023-04-23T08:43:08.159Z,15.57
2023-04-23T08:44:08.171Z,15.78
2023-04-23T08:45:08.165Z,15.81
2023-04-23T08:46:08.133Z,15.80
2023-04-23T08:47:08.159Z,16.02
2023-04-23T08:48:08.127Z,16.13
2023-04-23T08:49:08.092Z,16.18
2023-04-23T08:50:08.139Z,16.28
2023-04-23T08:51:08.083Z,16.44
2023-04-23T08:52:08.045Z,16.65
2023-04-23T08:53:08.047Z,16.68
2023-04-23T08:54:08.073Z,16.98
2023-04-23T08:55:08.053Z,17.23
2023-04-23T08:56:08.043Z,17.24
2023-04-23T08:57:08.014Z,17.41
2023-04-23T08:58:07.982Z,17.24
2023-04-23T08:59:08.001Z,17.27
2023-04-23T09:00:08.036Z,17.44
2023-04-23T09:01:07.988Z,17.69
2023-04-23T09:02:08.388Z,17.86
2023-04-23T09:03:08.126Z,17.93
2023-04-23T09:04:07.938Z,18.26
2023-04-23T09:05:07.932Z,18.52
2023-04-23T09:06:07.951Z,18.52
2023-04-23T09:07:07.924Z,18.74
2023-04-23T09:08:07.904Z,18.64
2023-04-23T09:09:07.891Z,18.57
2023-04-23T09:10:07.901Z,18.74
2023-04-23T09:11:07.842Z,18.33
2023-04-23T09:12:07.889Z,18.05
2023-04-23T09:13:07.878Z,17.68
2023-04-23T09:14:07.826Z,17.47
2023-04-23T09:15:07.834Z,17.34
2023-04-23T09:16:07.945Z,17.28
2023-04-23T09:17:08.830Z,16.98
2023-04-23T09:18:07.878Z,17.16
2023-04-23T09:19:07.809Z,17.02
2023-04-23T09:20:07.768Z,16.87
2023-04-23T09:21:07.773Z,16.72
2023-04-23T09:22:07.768Z,16.82
2023-04-23T09:23:07.772Z,16.54
2023-04-23T09:24:07.717Z,16.79
2023-04-23T09:25:07.730Z,16.77
2023-04-23T09:26:07.729Z,16.87
2023-04-23T09:27:07.710Z,16.77
2023-04-23T09:28:07.729Z,16.77
2023-04-23T09:29:07.692Z,16.62
2023-04-23T09:30:07.675Z,16.47
2023-04-23T09:31:07.692Z,16.36
2023-04-23T09:32:07.747Z,16.36
2023-04-23T09:33:07.661Z,16.13
2023-04-23T09:34:07.616Z,16.10
2023-04-23T09:35:07.648Z,15.91
2023-04-23T09:36:07.586Z,15.94
2023-04-23T09:37:07.593Z,15.92
2023-04-23T09:38:07.637Z,15.84
2023-04-23T09:39:07.568Z,15.83
2023-04-23T09:40:07.587Z,15.91
2023-04-23T09:41:07.539Z,16.00
2023-04-23T09:42:07.584Z,16.02
2023-04-23T09:43:07.599Z,16.16
2023-04-23T09:44:07.511Z,16.34
2023-04-23T09:45:07.539Z,16.44
2023-04-23T09:46:07.522Z,16.65
2023-04-23T09:47:07.506Z,16.89
2023-04-23T09:48:07.515Z,17.17
2023-04-23T09:49:07.457Z,17.49
2023-04-23T09:50:07.480Z,17.78
2023-04-23T09:51:07.443Z,17.52
2023-04-23T09:52:07.450Z,17.56
2023-04-23T09:53:07.445Z,17.54
2023-04-23T09:54:07.425Z,17.37
2023-04-23T09:55:07.412Z,17.44
2023-04-23T09:56:07.418Z,17.39
2023-04-23T09:57:07.393Z,17.47
2023-04-23T09:58:07.346Z,17.54
2023-04-23T09:59:07.405Z,17.84
2023-04-23T10:00:14.283Z,17.82
2023-04-23T10:01:09.404Z,18.27
2023-04-23T10:02:07.414Z,18.66
2023-04-23T10:03:07.441Z,18.79
2023-04-23T10:04:07.443Z,18.83
2023-04-23T10:05:21.747Z,18.92
2023-04-23T10:06:17.306Z,19.26
2023-04-23T10:08:10.329Z,19.27
2023-04-23T10:09:07.252Z,19.08
2023-04-23T10:10:07.243Z,18.70
2023-04-23T10:11:20.457Z,18.12
2023-04-23T10:12:20.564Z,17.93
2023-04-23T10:13:09.246Z,18.16
2023-04-23T10:14:07.176Z,18.61
2023-04-23T10:15:07.184Z,18.98
2023-04-23T10:16:18.123Z,19.20
2023-04-23T10:17:09.170Z,19.19
2023-04-23T10:18:07.192Z,19.27
2023-04-23T10:19:07.144Z,19.49
2023-04-23T10:20:07.136Z,19.74
2023-04-23T10:21:07.117Z,19.52
2023-04-23T10:22:18.592Z,19.63
2023-04-23T10:23:09.221Z,19.60
2023-04-23T10:24:07.060Z,19.64
2023-04-23T10:25:07.124Z,19.79
2023-04-23T10:26:07.093Z,19.94
2023-04-23T10:27:14.267Z,20.10
2023-04-23T10:28:09.034Z,20.50
2023-04-23T10:29:07.041Z,20.82
2023-04-23T10:30:07.048Z,20.77
2023-04-23T10:31:07.030Z,21.00
2023-04-23T10:32:07.031Z,21.08
2023-04-23T10:33:15.799Z,21.15
2023-04-23T10:34:08.979Z,21.15
2023-04-23T10:35:06.966Z,20.71
2023-04-23T10:36:06.958Z,20.12
2023-04-23T10:37:06.967Z,20.21
2023-04-23T10:38:06.929Z,20.39
2023-04-23T10:39:06.935Z,20.48
2023-04-23T10:40:06.964Z,20.55
2023-04-23T10:41:06.884Z,20.92
2023-04-23T10:42:06.901Z,20.93
2023-04-23T10:43:06.885Z,20.44
2023-04-23T10:44:06.922Z,20.17
2023-04-23T10:45:16.591Z,20.22
2023-04-23T10:46:08.987Z,20.55
2023-04-23T10:47:06.835Z,20.93
2023-04-23T10:48:06.842Z,21.00
2023-04-23T10:49:06.800Z,21.33
2023-04-23T10:50:06.857Z,21.48
2023-04-23T10:51:35.443Z,21.17
2023-04-23T10:52:19.550Z,20.93
2023-04-23T10:53:08.811Z,20.96
2023-04-23T10:54:06.794Z,20.88
2023-04-23T10:55:06.746Z,21.33
2023-04-23T10:56:38.700Z,21.72
2023-04-23T10:57:06.762Z,21.51
2023-04-23T10:58:06.754Z,21.45
2023-04-23T10:59:07.727Z,20.02
2023-04-23T11:00:06.731Z,19.55
2023-04-23T11:01:06.727Z,19.72
2023-04-23T11:02:06.859Z,20.08
2023-04-23T11:03:07.804Z,20.55
2023-04-23T11:04:07.911Z,21.13
2023-04-23T11:05:06.751Z,21.66
2023-04-23T11:06:06.680Z,22.15
2023-04-23T11:07:06.636Z,22.12
2023-04-23T11:08:18.216Z,21.40
2023-04-23T11:09:08.683Z,20.93
2023-04-23T11:10:06.603Z,21.10
2023-04-23T11:11:06.602Z,20.90
2023-04-23T11:12:06.621Z,20.77
2023-04-23T11:13:06.697Z,20.10
2023-04-23T11:14:06.601Z,20.21
2023-04-23T11:15:06.603Z,20.34
2023-04-23T11:16:06.573Z,20.46
2023-04-23T11:17:06.578Z,20.37
2023-04-23T11:18:06.593Z,20.27
2023-04-23T11:19:06.541Z,20.37
2023-04-23T11:20:06.539Z,20.14
2023-04-23T11:21:06.524Z,20.46
2023-04-23T11:22:06.527Z,20.39
2023-04-23T11:23:06.481Z,20.21
2023-04-23T11:24:06.502Z,20.48
2023-04-23T11:25:06.466Z,20.07
2023-04-23T11:26:06.521Z,20.46
2023-04-23T11:27:06.417Z,20.90
2023-04-23T11:28:06.459Z,21.00
2023-04-23T11:29:06.440Z,21.17
2023-04-23T11:30:06.441Z,21.17
2023-04-23T11:31:07.367Z,20.40
2023-04-23T11:32:06.488Z,20.37
2023-04-23T11:33:06.553Z,20.75
2023-04-23T11:34:06.345Z,20.78
2023-04-23T11:35:06.356Z,20.68
2023-04-23T11:36:06.319Z,20.78
2023-04-23T11:37:06.342Z,20.83
2023-04-23T11:38:06.507Z,20.53
2023-04-23T11:39:06.328Z,20.42
2023-04-23T11:40:06.298Z,19.94
2023-04-23T11:41:06.358Z,19.56
2023-04-23T11:42:06.309Z,18.91
2023-04-23T11:43:06.265Z,18.45
2023-04-23T11:44:06.245Z,17.93
2023-04-23T11:45:06.247Z,17.24
2023-04-23T11:46:06.301Z,17.04
2023-04-23T11:47:06.213Z,17.12
2023-04-23T11:48:06.288Z,17.46
2023-04-23T11:49:06.199Z,17.90
2023-04-23T11:50:06.205Z,18.23
2023-04-23T11:51:06.154Z,18.64
2023-04-23T11:52:06.147Z,18.52
2023-04-23T11:53:06.163Z,18.91
2023-04-23T11:54:06.129Z,19.39
2023-04-23T11:55:06.111Z,19.74
2023-04-23T11:56:06.115Z,19.39
2023-04-23T11:57:06.104Z,19.56
2023-04-23T11:58:06.083Z,19.82
2023-04-23T11:59:06.099Z,19.63
2023-04-23T12:00:06.074Z,19.63
2023-04-23T12:01:06.052Z,20.02
2023-04-23T12:02:06.108Z,20.00
2023-04-23T12:03:06.269Z,20.56
2023-04-23T12:04:06.237Z,20.32
2023-04-23T12:05:06.048Z,20.21
2023-04-23T12:06:06.029Z,20.86
2023-04-23T12:07:16.000Z,21.37
2023-04-23T12:08:07.968Z,21.94
2023-04-23T12:09:05.966Z,21.19
2023-04-23T12:10:05.964Z,21.28
2023-04-23T12:11:05.928Z,21.59
2023-04-23T12:12:05.933Z,21.84
2023-04-23T12:13:05.942Z,21.97
2023-04-23T12:14:05.950Z,22.07
2023-04-23T12:15:05.897Z,22.23
2023-04-23T12:16:05.972Z,22.16
2023-04-23T12:17:05.888Z,22.04
2023-04-23T12:18:05.855Z,22.06
2023-04-23T12:19:05.896Z,20.74
2023-04-23T12:20:05.838Z,20.36
2023-04-23T12:21:05.849Z,19.67
2023-04-23T12:22:05.848Z,19.63
2023-04-23T12:23:05.836Z,19.77
2023-04-23T12:24:05.813Z,19.66
2023-04-23T12:25:05.809Z,19.48
2023-04-23T12:26:05.798Z,18.96
2023-04-23T12:27:06.060Z,19.09
2023-04-23T12:28:05.778Z,19.26
2023-04-23T12:29:05.775Z,19.67
2023-04-23T12:30:07.400Z,20.02
2023-04-23T12:31:06.752Z,20.22
2023-04-23T12:32:05.707Z,20.36
2023-04-23T12:33:05.743Z,20.44
2023-04-23T12:34:05.778Z,20.52
2023-04-23T12:35:05.729Z,20.55
2023-04-23T12:36:05.716Z,20.53
2023-04-23T12:37:05.694Z,20.30
2023-04-23T12:38:05.687Z,19.78
2023-04-23T12:39:05.644Z,19.62
2023-04-23T12:40:05.622Z,19.24
2023-04-23T12:41:05.595Z,18.97
2023-04-23T12:42:06.668Z,19.00
2023-04-23T12:43:05.635Z,18.98
2023-04-23T12:44:05.572Z,19.15
2023-04-23T12:45:05.570Z,18.68
2023-04-23T12:46:05.588Z,18.89
2023-04-23T12:47:05.588Z,19.12
2023-04-23T12:48:05.564Z,19.49
2023-04-23T12:49:05.542Z,19.22
2023-04-23T12:50:05.530Z,19.23
2023-04-23T12:51:05.524Z,19.17
2023-04-23T12:52:05.503Z,18.98
2023-04-23T12:53:05.493Z,18.97